createdAt,value
2022-09-15T00:02:27.530Z,6.03
2022-09-15T00:07:32.126Z,5.43
2022-09-15T00:12:34.778Z,5.85
2022-09-15T00:17:37.408Z,5.85
2022-09-15T00:22:41.375Z,5.88
2022-09-15T00:27:43.971Z,5.65
2022-09-15T00:32:46.572Z,6.20
2022-09-15T00:37:50.561Z,6.57
2022-09-15T00:42:53.230Z,6.28
2022-09-15T00:47:55.857Z,5.85
2022-09-15T00:53:02.035Z,6.03
2022-09-15T00:58:06.642Z,6.55
2022-09-15T01:03:09.281Z,6.82
2022-09-15T01:08:18.815Z,7.85
2022-09-15T01:13:21.401Z,5.95
2022-09-15T01:18:28.513Z,6.50
2022-09-15T01:23:46.723Z,7.47
2022-09-15T01:29:05.885Z,7.00
2022-09-15T01:34:15.790Z,7.05
2022-09-15T01:39:22.616Z,6.55
2022-09-15T01:44:27.593Z,6.50
2022-09-15T01:49:35.866Z,6.75
2022-09-15T01:54:44.257Z,6.10
2022-09-15T01:59:46.831Z,7.28
2022-09-15T02:04:53.368Z,7.20
2022-09-15T02:10:00.783Z,8.10
2022-09-15T02:15:08.005Z,7.70
2022-09-15T02:20:16.461Z,8.13
2022-09-15T02:25:22.013Z,7.80
2022-09-15T02:30:25.184Z,7.90
2022-09-15T02:35:30.934Z,7.47
2022-09-15T02:40:33.872Z,8.38
2022-09-15T02:45:36.652Z,8.00
2022-09-15T02:50:41.220Z,7.75
2022-09-15T02:55:43.801Z,7.88
2022-09-15T03:00:46.449Z,7.65
2022-09-15T03:05:50.410Z,6.72
2022-09-15T03:10:53.075Z,7.65
2022-09-15T03:15:55.715Z,7.55
2022-09-15T03:20:59.810Z,8.18
2022-09-15T03:26:03.968Z,7.97
2022-09-15T03:31:07.518Z,6.97
2022-09-15T03:36:11.801Z,7.13
2022-09-15T03:41:14.802Z,7.63
2022-09-15T03:46:17.922Z,7.22
2022-09-15T03:51:22.164Z,8.40
2022-09-15T03:56:26.070Z,7.30
2022-09-15T04:01:29.071Z,7.00
2022-09-15T04:06:33.138Z,7.10
2022-09-15T04:11:35.736Z,7.82
2022-09-15T04:16:38.335Z,7.70
2022-09-15T04:21:42.279Z,8.00
2022-09-15T04:26:45.164Z,7.88
2022-09-15T04:31:48.530Z,7.50
2022-09-15T04:36:52.686Z,7.53
2022-09-15T04:41:55.455Z,6.85
2022-09-15T04:46:58.141Z,6.53
2022-09-15T04:52:04.757Z,7.32
2022-09-15T04:57:10.663Z,7.57
2022-09-15T05:02:13.349Z,6.95
2022-09-15T05:07:17.391Z,7.00
2022-09-15T05:12:19.973Z,7.63
2022-09-15T05:17:26.211Z,6.28
2022-09-15T05:22:30.990Z,7.70
2022-09-15T05:27:33.810Z,7.18
2022-09-15T05:32:36.430Z,6.80
2022-09-15T05:37:40.403Z,7.38
2022-09-15T05:42:42.999Z,6.80
2022-09-15T05:47:45.637Z,6.35
2022-09-15T05:52:53.107Z,6.75
2022-09-15T05:57:55.706Z,6.75
2022-09-15T06:02:58.362Z,6.43
2022-09-15T06:08:02.839Z,7.45
2022-09-15T06:13:05.984Z,7.45
2022-09-15T06:18:08.581Z,7.28
2022-09-15T06:23:12.528Z,6.85
2022-09-15T06:28:15.183Z,7.25
2022-09-15T06:33:17.803Z,6.78
2022-09-15T06:38:21.941Z,7.00
2022-09-15T06:43:24.635Z,6.78
2022-09-15T06:48:27.287Z,6.90
2022-09-15T06:53:32.447Z,6.65
2022-09-15T06:58:36.217Z,6.82
2022-09-15T07:03:40.254Z,6.72
2022-09-15T07:08:45.329Z,5.75
2022-09-15T07:13:48.537Z,6.82
2022-09-15T07:18:51.147Z,6.20
2022-09-15T07:23:57.545Z,5.63
2022-09-15T07:29:01.556Z,5.43
2022-09-15T07:34:04.252Z,4.60
2022-09-15T07:39:08.288Z,4.60
2022-09-15T07:44:11.829Z,4.97
2022-09-15T07:49:14.587Z,4.38
2022-09-15T07:54:22.612Z,4.72
2022-09-15T07:59:25.717Z,4.57
2022-09-15T08:04:28.640Z,4.35
2022-09-15T08:09:32.686Z,3.95
2022-09-15T08:14:35.957Z,4.03
2022-09-15T08:19:38.604Z,3.20
2022-09-15T08:24:42.535Z,4.30
2022-09-15T08:29:45.255Z,3.92
2022-09-15T08:34:47.925Z,4.75
2022-09-15T08:39:52.205Z,5.30
2022-09-15T08:44:57.920Z,4.03
2022-09-15T08:50:05.173Z,4.03
2022-09-15T08:55:15.005Z,3.47
2022-09-15T09:00:18.446Z,3.53
2022-09-15T09:05:42.948Z,4.88
2022-09-15T09:10:51.944Z,4.40
2022-09-15T09:16:09.442Z,5.13
2022-09-15T09:21:20.158Z,5.35
2022-09-15T09:26:24.106Z,5.60
2022-09-15T09:31:28.621Z,6.03
2022-09-15T09:36:31.435Z,5.03
2022-09-15T09:41:38.860Z,4.82
2022-09-15T09:46:42.655Z,6.93
2022-09-15T09:51:52.928Z,5.18
2022-09-15T09:56:58.332Z,4.18
2022-09-15T10:02:20.917Z,4.30
2022-09-15T10:07:25.739Z,3.83
2022-09-15T10:12:34.108Z,4.60
2022-09-15T10:17:42.482Z,3.28
2022-09-15T10:22:45.371Z,3.47
2022-09-15T10:28:03.364Z,2.63
2022-09-15T10:33:20.135Z,3.20
2022-09-15T10:38:30.644Z,2.55
2022-09-15T10:43:42.034Z,2.83
2022-09-15T10:48:49.860Z,2.75
2022-09-15T10:54:05.806Z,2.80
2022-09-15T10:59:38.020Z,2.80
2022-09-15T11:05:11.575Z,2.70
2022-09-15T11:10:20.133Z,2.85
2022-09-15T11:15:38.443Z,2.58
2022-09-15T11:21:06.953Z,2.50
2022-09-15T11:26:14.874Z,2.70
2022-09-15T11:31:22.307Z,2.97
2022-09-15T11:36:31.448Z,2.50
2022-09-15T11:41:37.089Z,2.10
2022-09-15T11:46:51.611Z,2.97
2022-09-15T11:51:59.433Z,1.88
2022-09-15T11:57:02.048Z,1.40
2022-09-15T12:02:12.788Z,1.30
2022-09-15T12:07:19.766Z,1.27
2022-09-15T12:12:22.988Z,1.17
2022-09-15T12:17:30.851Z,1.65
2022-09-15T12:22:37.438Z,1.10
2022-09-15T12:27:40.299Z,0.90
2022-09-15T12:32:44.238Z,1.10
2022-09-15T12:37:47.877Z,0.85
2022-09-15T12:42:50.710Z,0.60
2022-09-15T12:47:56.576Z,0.82
2022-09-15T12:53:00.938Z,0.85
2022-09-15T12:58:08.780Z,0.80
2022-09-15T13:03:28.664Z,0.70
2022-09-15T13:08:49.316Z,0.90
2022-09-15T13:13:54.532Z,0.80
2022-09-15T13:19:17.765Z,1.00
2022-09-15T13:24:38.769Z,0.65
2022-09-15T13:29:47.502Z,0.47
2022-09-15T13:35:41.231Z,1.00
2022-09-15T13:41:18.726Z,0.63
2022-09-15T13:46:32.679Z,1.17
2022-09-15T13:51:38.151Z,0.80
2022-09-15T13:56:41.246Z,0.82
2022-09-15T14:01:44.835Z,0.95
2022-09-15T14:06:50.410Z,1.00
2022-09-15T14:11:54.310Z,0.90
2022-09-15T14:16:57.558Z,1.00
2022-09-15T14:22:02.228Z,0.90
2022-09-15T14:27:10.128Z,1.10
2022-09-15T14:32:14.904Z,0.98
2022-09-15T14:37:23.809Z,0.88
2022-09-15T14:42:30.647Z,1.08
2022-09-15T14:47:33.359Z,0.80
2022-09-15T14:52:40.434Z,0.93
2022-09-15T14:57:45.506Z,1.15
2022-09-15T15:02:58.517Z,0.77
2022-09-15T15:08:05.004Z,1.48
2022-09-15T15:13:11.215Z,0.95
2022-09-15T15:18:32.424Z,1.20
2022-09-15T15:23:46.887Z,1.20
2022-09-15T15:28:49.783Z,1.25
2022-09-15T15:33:55.789Z,1.00
2022-09-15T15:39:01.687Z,0.77
2022-09-15T15:44:08.604Z,1.20
2022-09-15T15:49:13.258Z,1.20
2022-09-15T15:54:17.315Z,0.82
2022-09-15T15:59:20.927Z,1.10
2022-09-15T16:04:23.707Z,0.82
2022-09-15T16:09:27.811Z,0.70
2022-09-15T16:14:30.460Z,0.57
2022-09-15T16:19:33.193Z,0.70
2022-09-15T16:24:37.147Z,0.90
2022-09-15T16:29:39.722Z,0.60
2022-09-15T16:34:42.376Z,1.10
2022-09-15T16:39:46.453Z,0.75
2022-09-15T16:44:49.123Z,0.68
2022-09-15T16:49:52.697Z,0.77
2022-09-15T16:54:57.114Z,0.82
2022-09-15T16:59:59.756Z,0.80
2022-09-15T17:05:02.406Z,0.80
2022-09-15T17:10:07.905Z,0.68
2022-09-15T17:15:19.964Z,0.73
2022-09-15T17:20:23.760Z,0.60
2022-09-15T17:25:30.104Z,0.68
2022-09-15T17:30:33.327Z,0.82
2022-09-15T17:35:37.382Z,0.50
2022-09-15T17:40:41.453Z,0.80
2022-09-15T17:45:44.144Z,0.77
2022-09-15T17:50:48.799Z,0.65
2022-09-15T17:55:54.224Z,0.70
2022-09-15T18:00:56.959Z,0.60
2022-09-15T18:06:00.987Z,0.57
2022-09-15T18:11:06.540Z,0.90
2022-09-15T18:16:13.154Z,0.70
2022-09-15T18:21:24.508Z,0.95
2022-09-15T18:26:28.515Z,0.80
2022-09-15T18:31:31.348Z,0.80
2022-09-15T18:36:34.245Z,0.70
2022-09-15T18:41:38.988Z,0.70
2022-09-15T18:46:42.015Z,0.95
2022-09-15T18:51:52.207Z,0.80
2022-09-15T18:56:56.415Z,0.60
2022-09-15T19:01:59.278Z,0.70
2022-09-15T19:07:02.035Z,0.90
2022-09-15T19:12:06.568Z,0.70
2022-09-15T19:17:09.307Z,0.68
2022-09-15T19:22:11.998Z,0.88
2022-09-15T19:27:16.038Z,0.70
2022-09-15T19:32:19.301Z,0.73
2022-09-15T19:37:22.768Z,0.70
2022-09-15T19:42:26.809Z,0.70
2022-09-15T19:47:29.507Z,0.80
2022-09-15T19:52:32.347Z,0.70
2022-09-15T19:57:39.473Z,0.90
2022-09-15T20:02:42.537Z,0.90
2022-09-15T20:07:48.080Z,0.77
2022-09-15T20:12:52.114Z,1.27
2022-09-15T20:17:54.787Z,0.55
2022-09-15T20:22:57.726Z,0.65
2022-09-15T20:28:01.777Z,0.75
2022-09-15T20:33:04.434Z,0.90
2022-09-15T20:38:07.087Z,0.60
2022-09-15T20:43:11.144Z,0.63
2022-09-15T20:48:13.749Z,0.82
2022-09-15T20:53:16.401Z,0.80
2022-09-15T20:58:20.360Z,0.80
2022-09-15T21:03:24.086Z,0.98
2022-09-15T21:08:26.792Z,0.70
2022-09-15T21:13:32.275Z,0.77
2022-09-15T21:18:36.388Z,0.77
2022-09-15T21:23:41.293Z,0.90
2022-09-15T21:28:45.607Z,0.80
2022-09-15T21:33:49.023Z,1.80
2022-09-15T21:38:53.392Z,0.90
2022-09-15T21:43:58.726Z,0.70
2022-09-15T21:49:01.424Z,0.60
2022-09-15T21:54:04.892Z,0.90
2022-09-15T21:59:09.293Z,0.60
2022-09-15T22:04:12.244Z,0.68
2022-09-15T22:09:16.206Z,0.57
2022-09-15T22:14:21.395Z,0.60
2022-09-15T22:19:24.202Z,0.55
2022-09-15T22:24:26.950Z,0.60
2022-09-15T22:29:30.882Z,0.50
2022-09-15T22:34:33.512Z,0.52
2022-09-15T22:39:58.096Z,0.50
2022-09-15T22:45:00.136Z,0.60
2022-09-15T22:50:02.757Z,0.60
2022-09-15T22:55:06.181Z,0.50
2022-09-15T23:00:12.049Z,0.77
2022-09-15T23:05:14.685Z,0.57
2022-09-15T23:10:17.440Z,0.52
2022-09-15T23:15:21.402Z,0.50
2022-09-15T23:20:24.019Z,0.70
2022-09-15T23:25:26.999Z,0.50
2022-09-15T23:30:30.975Z,0.60
2022-09-15T23:35:33.582Z,0.47
2022-09-15T23:40:36.192Z,0.60
2022-09-15T23:45:40.874Z,0.50
2022-09-15T23:50:44.113Z,0.57
2022-09-15T23:55:47.409Z,0.80
